Time;durP1;ratioP1;P1;durP2;ratioP2;P2;SDS_P1;SDS_P2;PMS_P1;PMS_P2;Temp;Humidity;BMP_temperature;BMP_pressure;BME280_temperature;BME280_humidity;BME280_pressure;Samples;Min_cycle;Max_cycle;Signal;HPM_P1;HPM_P2
2022/06/09 00:01:23;;;;;;;4.18;1.60;;;16.80;99.90;;;;;;5093029;28;20028;-78
2022/06/09 00:04:02;;;;;;;2.00;1.52;;;16.80;99.90;;;;;;5093153;28;20066;-80
2022/06/09 00:06:36;;;;;;;2.65;1.20;;;16.80;99.90;;;;;;5092232;28;20032;-78
2022/06/09 00:09:03;;;;;;;2.40;1.50;;;16.80;99.90;;;;;;5093182;28;20059;-79
2022/06/09 00:11:29;;;;;;;1.77;1.20;;;16.80;99.90;;;;;;5092260;28;20051;-79
2022/06/09 00:13:54;;;;;;;1.50;1.20;;;16.80;99.90;;;;;;5092640;28;20052;-80
2022/06/09 00:16:20;;;;;;;2.08;1.08;;;16.70;99.90;;;;;;5092900;28;20358;-80
2022/06/09 00:18:46;;;;;;;1.65;1.10;;;16.70;99.90;;;;;;5093174;28;20119;-79
2022/06/09 00:21:12;;;;;;;2.03;1.25;;;16.80;99.90;;;;;;5097654;28;20105;-79
2022/06/09 00:23:38;;;;;;;3.78;1.10;;;16.80;99.90;;;;;;5081604;28;20028;-79
2022/06/09 00:26:04;;;;;;;2.08;1.38;;;16.80;99.90;;;;;;5103305;28;20042;-80
2022/06/09 00:28:30;;;;;;;1.83;1.20;;;16.80;99.90;;;;;;5111906;28;20465;-81
2022/06/09 00:30:56;;;;;;;3.78;1.10;;;16.80;99.90;;;;;;5082589;28;20036;-79
2022/06/09 00:33:22;;;;;;;1.75;1.13;;;16.90;99.90;;;;;;5109186;28;20027;-81
2022/06/09 00:35:49;;;;;;;2.92;0.95;;;16.80;99.90;;;;;;5109320;28;20357;-79
2022/06/09 00:38:14;;;;;;;1.83;1.35;;;16.80;99.90;;;;;;5102990;28;20035;-80
2022/06/09 00:40:40;;;;;;;3.17;1.10;;;16.80;99.90;;;;;;5098648;28;20028;-79
2022/06/09 00:43:06;;;;;;;2.28;1.10;;;16.80;99.90;;;;;;5099334;28;20404;-80
2022/06/09 00:45:34;;;;;;;3.00;1.40;;;16.70;99.90;;;;;;5085640;28;20021;-82
2022/06/09 00:48:00;;;;;;;1.42;1.15;;;16.70;99.90;;;;;;5090290;28;20103;-82
2022/06/09 00:50:27;;;;;;;2.55;1.05;;;16.70;99.90;;;;;;5088132;28;20153;-81
2022/06/09 00:52:58;;;;;;;3.22;1.13;;;16.60;99.90;;;;;;5075596;28;20526;-81
2022/06/09 00:55:26;;;;;;;2.10;1.27;;;16.60;99.90;;;;;;5102365;28;20477;-81
2022/06/09 00:57:59;;;;;;;2.42;1.10;;;16.50;99.90;;;;;;5099936;28;20045;-81
2022/06/09 01:00:30;;;;;;;1.95;0.75;;;16.50;99.90;;;;;;5100353;28;20120;-82
2022/06/09 01:02:58;;;;;;;0.90;0.90;;;16.40;99.90;;;;;;5100108;28;20457;-81
2022/06/09 01:05:29;;;;;;;2.65;0.80;;;16.40;99.90;;;;;;5082330;28;20028;-81
2022/06/09 01:07:58;;;;;;;;;;;16.30;99.90;;;;;;5100269;28;20035;-82
2022/06/09 01:10:23;;;;;;;2.53;0.70;;;16.30;99.90;;;;;;5082545;28;20418;-80
2022/06/09 01:12:49;;;;;;;1.08;0.60;;;16.30;99.90;;;;;;5098941;28;20024;-81
2022/06/09 01:15:22;;;;;;;2.40;0.50;;;16.20;99.90;;;;;;5094039;28;20105;-82
2022/06/09 01:18:02;;;;;;;3.58;0.73;;;16.10;99.90;;;;;;5098716;28;20074;-82
2022/06/09 01:20:41;;;;;;;2.88;0.70;;;16.10;99.90;;;;;;5099421;28;20081;-82
2022/06/09 01:23:31;;;;;;;1.65;0.70;;;16.10;99.90;;;;;;5100297;28;20028;-81
2022/06/09 01:26:31;;;;;;;1.42;0.60;;;16.10;99.90;;;;;;5098727;28;20028;-81
2022/06/09 01:29:26;;;;;;;2.25;0.68;;;16.00;99.90;;;;;;5098932;28;20031;-81
2022/06/09 01:32:11;;;;;;;1.75;0.57;;;16.00;99.90;;;;;;5096822;28;20035;-82
2022/06/09 01:35:05;;;;;;;3.10;0.68;;;16.00;99.90;;;;;;5096505;28;20465;-82
2022/06/09 01:37:41;;;;;;;0.90;0.63;;;15.90;99.90;;;;;;5096830;28;20026;-82
2022/06/09 01:40:10;;;;;;;2.17;0.80;;;15.90;99.90;;;;;;5095908;28;20028;-82
2022/06/09 01:42:43;;;;;;;3.33;0.60;;;15.90;99.90;;;;;;5095522;28;20431;-82
2022/06/09 01:45:39;;;;;;;2.58;0.80;;;15.90;99.90;;;;;;5096919;28;20038;-82
2022/06/09 01:48:15;;;;;;;1.65;0.63;;;15.90;99.90;;;;;;5095903;28;20036;-81
2022/06/09 01:50:47;;;;;;;3.33;0.80;;;15.80;99.90;;;;;;5096531;28;20028;-81
2022/06/09 01:53:22;;;;;;;;;;;15.90;99.90;;;;;;5096014;28;20028;-81
2022/06/09 01:55:52;;;;;;;1.77;0.63;;;15.80;99.90;;;;;;5096091;28;19908;-81
2022/06/09 01:58:24;;;;;;;0.88;0.70;;;15.80;99.90;;;;;;5095532;28;20032;-81
2022/06/09 02:00:50;;;;;;;;;;;15.80;99.90;;;;;;5095189;28;20032;-81
2022/06/09 02:03:23;;;;;;;0.70;0.50;;;15.90;99.90;;;;;;5096345;28;19949;-81
2022/06/09 02:05:51;;;;;;;2.17;0.50;;;15.80;99.90;;;;;;5095693;28;20028;-81
2022/06/09 02:08:22;;;;;;;1.60;0.70;;;15.70;99.90;;;;;;5096266;28;20028;-81
2022/06/09 02:10:57;;;;;;;2.13;0.60;;;15.70;99.90;;;;;;5094885;28;20032;-81
2022/06/09 02:13:30;;;;;;;0.90;0.60;;;15.80;99.90;;;;;;5095231;28;20265;-80
2022/06/09 02:16:00;;;;;;;3.67;0.85;;;15.70;99.90;;;;;;5095467;28;20415;-80
2022/06/09 02:18:29;;;;;;;1.40;0.88;;;15.70;99.90;;;;;;5094914;28;20512;-80
2022/06/09 02:21:17;;;;;;;3.42;1.33;;;15.80;99.90;;;;;;5094216;28;20109;-80
2022/06/09 02:23:43;;;;;;;1.67;0.82;;;15.80;99.90;;;;;;5085171;28;20039;-81
2022/06/09 02:26:08;;;;;;;2.53;0.90;;;15.80;99.90;;;;;;5111625;28;20032;-81
2022/06/09 02:28:35;;;;;;;1.92;0.95;;;15.80;99.90;;;;;;5111662;28;20039;-80
2022/06/09 02:31:01;;;;;;;2.60;0.95;;;15.80;99.90;;;;;;5111392;28;20028;-80
2022/06/09 02:33:26;;;;;;;3.03;0.80;;;15.80;99.90;;;;;;5094730;28;20020;-81
2022/06/09 02:35:52;;;;;;;2.83;0.93;;;15.80;99.90;;;;;;5094118;28;20063;-80
2022/06/09 02:38:19;;;;;;;1.58;1.05;;;15.90;99.90;;;;;;5094410;28;20031;-79
2022/06/09 02:40:45;;;;;;;3.08;0.60;;;15.90;99.90;;;;;;5094096;28;20405;-80
2022/06/09 02:43:13;;;;;;;1.15;0.90;;;15.90;99.90;;;;;;5093659;28;20038;-80
2022/06/09 02:45:39;;;;;;;3.33;0.88;;;15.90;99.90;;;;;;5094376;28;20138;-80
2022/06/09 02:48:05;;;;;;;1.30;0.90;;;15.90;99.90;;;;;;5094850;28;20039;-81
2022/06/09 02:50:31;;;;;;;3.03;0.75;;;15.80;99.90;;;;;;5094602;28;20024;-81
2022/06/09 02:52:58;;;;;;;3.90;0.88;;;15.80;99.90;;;;;;5095094;28;20025;-81
2022/06/09 02:55:24;;;;;;;1.77;0.98;;;15.80;99.90;;;;;;5094431;28;20400;-81
2022/06/09 02:57:50;;;;;;;1.20;0.85;;;15.80;99.90;;;;;;5094688;28;20063;-81
2022/06/09 03:00:16;;;;;;;1.52;0.88;;;15.80;99.90;;;;;;5095216;28;20457;-80
2022/06/09 03:02:43;;;;;;;3.00;1.17;;;15.80;99.90;;;;;;5110704;28;20118;-81
2022/06/09 03:05:10;;;;;;;1.65;0.77;;;15.80;99.90;;;;;;5093992;28;20457;-80
2022/06/09 03:07:35;;;;;;;5.35;1.08;;;15.80;99.90;;;;;;5110846;28;20020;-80
2022/06/09 03:10:01;;;;;;;1.95;0.90;;;15.80;99.90;;;;;;5093463;28;20427;-81
2022/06/09 03:12:26;;;;;;;6.50;1.70;;;15.80;99.90;;;;;;5111026;28;20028;-81
2022/06/09 03:14:53;;;;;;;7.38;1.10;;;15.80;99.90;;;;;;5093333;28;20040;-81
2022/06/09 03:17:19;;;;;;;2.08;0.80;;;15.80;99.90;;;;;;5111142;28;20024;-82
2022/06/09 03:19:44;;;;;;;3.90;1.45;;;15.80;99.90;;;;;;5110503;28;20032;-82
2022/06/09 03:22:10;;;;;;;2.50;1.35;;;15.80;99.90;;;;;;5093683;28;20028;-82
2022/06/09 03:24:36;;;;;;;2.92;1.02;;;15.80;99.90;;;;;;5110661;28;20028;-82
2022/06/09 03:27:01;;;;;;;2.30;0.65;;;15.80;99.90;;;;;;5093864;28;20063;-82
2022/06/09 03:29:27;;;;;;;3.67;0.70;;;15.80;99.90;;;;;;5094943;28;20032;-82
2022/06/09 03:31:53;;;;;;;2.25;0.80;;;15.80;99.90;;;;;;5093240;28;20081;-82
2022/06/09 03:34:18;;;;;;;2.28;0.82;;;15.80;99.90;;;;;;5094682;28;20103;-82
2022/06/09 03:36:45;;;;;;;2.42;0.75;;;15.80;99.90;;;;;;5093086;28;20514;-82
2022/06/09 03:39:12;;;;;;;3.40;0.80;;;15.80;99.90;;;;;;5093500;28;20115;-82
2022/06/09 03:41:37;;;;;;;2.15;0.85;;;15.80;99.90;;;;;;5093561;28;20059;-82
2022/06/09 03:44:04;;;;;;;6.18;1.30;;;15.80;99.90;;;;;;5094191;28;20392;-82
2022/06/09 03:46:30;;;;;;;3.00;0.90;;;15.80;99.90;;;;;;5093447;28;20036;-82
2022/06/09 03:48:56;;;;;;;4.70;0.77;;;15.80;99.90;;;;;;5094114;28;20522;-82
2022/06/09 03:51:21;;;;;;;1.77;0.85;;;15.80;99.90;;;;;;5093312;28;20024;-82
2022/06/09 03:53:47;;;;;;;3.78;0.77;;;15.80;99.90;;;;;;5093942;28;20027;-81
2022/06/09 03:56:18;;;;;;;3.80;0.80;;;15.70;99.90;;;;;;5094005;28;20029;-81
2022/06/09 03:58:45;;;;;;;2.78;0.73;;;15.80;99.90;;;;;;5094207;28;20039;-81
2022/06/09 04:01:17;;;;;;;2.42;0.80;;;15.70;99.90;;;;;;5093360;28;20032;-81
2022/06/09 04:03:44;;;;;;;3.28;0.75;;;15.70;99.90;;;;;;5094498;28;20028;-81
2022/06/09 04:06:22;;;;;;;2.83;0.90;;;15.60;99.90;;;;;;5093202;28;20020;-81
2022/06/09 04:08:48;;;;;;;3.67;0.68;;;15.60;99.90;;;;;;5109610;28;20059;-81
2022/06/09 04:11:15;;;;;;;4.18;0.85;;;15.60;99.90;;;;;;5092927;28;20042;-81
2022/06/09 04:13:41;;;;;;;3.10;0.80;;;15.50;99.90;;;;;;5092318;28;20119;-80
2022/06/09 04:16:23;;;;;;;1.77;0.77;;;15.50;99.90;;;;;;5092574;28;20052;-80
2022/06/09 04:18:50;;;;;;;3.42;0.75;;;15.50;99.90;;;;;;5075686;28;20067;-83
2022/06/09 04:21:16;;;;;;;4.70;0.90;;;15.50;99.90;;;;;;5093790;28;20050;-82
2022/06/09 04:23:42;;;;;;;2.58;0.90;;;15.50;99.90;;;;;;5092754;28;20037;-84
2022/06/09 04:26:15;;;;;;;4.03;1.10;;;15.50;99.90;;;;;;5075578;28;20490;-84
2022/06/09 04:28:41;;;;;;;6.93;0.90;;;15.50;99.90;;;;;;5076239;28;20060;-81
2022/06/09 04:31:07;;;;;;;3.78;1.00;;;15.40;99.90;;;;;;5093134;28;20032;-81
2022/06/09 04:33:32;;;;;;;2.95;1.02;;;15.40;99.90;;;;;;5093658;28;20107;-81
2022/06/09 04:35:58;;;;;;;3.92;1.10;;;15.40;99.90;;;;;;5092160;28;20024;-81
2022/06/09 04:38:24;;;;;;;3.55;0.95;;;15.40;99.90;;;;;;5092676;28;20465;-81
2022/06/09 04:40:49;;;;;;;5.70;1.02;;;15.30;99.90;;;;;;5092335;28;20043;-81
2022/06/09 04:43:15;;;;;;;4.93;1.00;;;15.30;99.90;;;;;;5092672;28;20024;-81
2022/06/09 04:45:42;;;;;;;3.83;1.00;;;15.30;99.90;;;;;;5093475;28;20028;-80
2022/06/09 04:48:11;;;;;;;4.47;1.17;;;15.30;99.90;;;;;;5091929;28;20063;-81
2022/06/09 04:50:38;;;;;;;7.35;1.10;;;15.30;99.90;;;;;;5094212;28;20068;-81
2022/06/09 04:53:05;;;;;;;3.50;1.20;;;15.20;99.90;;;;;;5075682;28;20050;-81
2022/06/09 04:55:31;;;;;;;7.13;1.50;;;15.20;99.90;;;;;;5092544;28;20461;-81
2022/06/09 04:57:58;;;;;;;3.55;1.50;;;15.20;99.90;;;;;;5093002;28;20050;-81
2022/06/09 05:00:24;;;;;;;3.40;1.10;;;15.20;99.90;;;;;;5092156;28;20034;-81
2022/06/09 05:02:51;;;;;;;4.30;1.20;;;15.10;99.90;;;;;;5091930;28;20048;-81
2022/06/09 05:05:24;;;;;;;3.10;1.13;;;15.10;99.90;;;;;;5092284;28;20020;-80
2022/06/09 05:07:49;;;;;;;3.33;1.20;;;15.10;99.90;;;;;;5095515;28;20035;-84
2022/06/09 05:10:15;;;;;;;6.15;1.33;;;15.10;99.90;;;;;;5096285;28;20028;-83
2022/06/09 05:12:42;;;;;;;2.58;1.35;;;15.10;99.90;;;;;;5078651;28;20114;-83
2022/06/09 05:15:11;;;;;;;6.15;1.15;;;15.10;99.90;;;;;;5106286;28;20070;-83
2022/06/09 05:17:37;;;;;;;4.05;1.60;;;15.20;99.90;;;;;;5095960;28;20195;-83
2022/06/09 05:20:03;;;;;;;3.85;1.23;;;15.10;99.90;;;;;;5112812;28;20099;-83
2022/06/09 05:22:28;;;;;;;3.47;1.42;;;15.10;99.90;;;;;;5096203;28;20081;-83
2022/06/09 05:24:58;;;;;;;4.40;1.52;;;15.10;99.90;;;;;;5095695;28;20063;-83
2022/06/09 05:27:24;;;;;;;4.15;1.33;;;15.20;99.90;;;;;;5096014;28;20119;-83
2022/06/09 05:29:49;;;;;;;4.82;1.00;;;15.20;99.90;;;;;;5113089;28;20024;-83
2022/06/09 05:32:15;;;;;;;4.22;1.42;;;15.20;99.90;;;;;;5095988;28;20074;-83
2022/06/09 05:34:41;;;;;;;3.88;1.48;;;15.20;99.90;;;;;;5095839;28;20028;-80
2022/06/09 05:37:06;;;;;;;4.07;1.23;;;15.20;99.90;;;;;;5112523;28;20362;-81
2022/06/09 05:45:21;;;;;;;3.47;1.10;;;15.20;99.90;;;;;;5059684;28;20075;-79
2022/06/09 05:47:48;;;;;;;6.20;1.17;;;15.20;99.90;;;;;;5086441;28;20035;-79
2022/06/09 05:50:14;;;;;;;4.72;0.93;;;15.20;99.90;;;;;;5098522;28;20024;-79
2022/06/09 05:52:39;;;;;;;7.68;1.70;;;15.10;99.90;;;;;;5099172;28;20024;-79
2022/06/09 05:55:07;;;;;;;5.82;1.20;;;15.20;99.90;;;;;;5115091;28;20032;-79
2022/06/09 05:57:33;;;;;;;4.82;1.00;;;15.20;99.90;;;;;;5098348;28;20024;-79
2022/06/09 05:59:59;;;;;;;4.03;1.10;;;15.30;99.90;;;;;;5114122;28;20097;-78
2022/06/09 06:02:26;;;;;;;5.93;1.30;;;15.30;99.90;;;;;;5097518;28;20041;-80
2022/06/09 06:04:53;;;;;;;2.95;0.95;;;15.30;99.90;;;;;;5095906;28;20028;-79
2022/06/09 06:07:19;;;;;;;3.65;0.82;;;15.30;99.90;;;;;;5095456;28;20078;-79
2022/06/09 06:09:46;;;;;;;4.65;1.05;;;15.40;99.90;;;;;;5095922;28;20039;-80
2022/06/09 06:12:12;;;;;;;4.63;1.30;;;15.40;99.90;;;;;;5096744;28;20054;-80
2022/06/09 06:14:37;;;;;;;9.02;1.00;;;15.40;99.90;;;;;;5095605;28;20048;-80
2022/06/09 06:17:03;;;;;;;6.68;1.02;;;15.40;99.90;;;;;;5095518;28;20020;-80
2022/06/09 06:19:29;;;;;;;5.45;0.88;;;15.40;99.90;;;;;;5077517;28;20028;-79
2022/06/09 06:21:55;;;;;;;5.03;1.38;;;15.40;99.90;;;;;;5094471;28;20028;-80
2022/06/09 06:24:24;;;;;;;4.78;0.70;;;15.50;99.90;;;;;;5095824;28;20071;-81
2022/06/09 06:26:50;;;;;;;4.00;0.93;;;15.50;99.90;;;;;;5077896;28;20127;-81
2022/06/09 06:29:22;;;;;;;5.50;1.05;;;15.60;99.90;;;;;;5095338;28;20032;-81
2022/06/09 06:31:48;;;;;;;4.35;1.08;;;15.60;99.90;;;;;;5078289;28;20024;-81
2022/06/09 06:34:13;;;;;;;6.90;0.95;;;15.70;99.90;;;;;;5077418;28;20281;-81
2022/06/09 06:36:39;;;;;;;5.60;0.90;;;15.70;99.90;;;;;;5094696;28;20025;-81
2022/06/09 06:39:05;;;;;;;6.43;0.93;;;15.70;99.90;;;;;;5094138;28;20032;-81
2022/06/09 06:41:31;;;;;;;3.30;0.77;;;15.80;99.90;;;;;;5095896;28;20162;-81
2022/06/09 06:43:57;;;;;;;4.57;1.25;;;15.80;99.90;;;;;;5095041;28;20052;-82
2022/06/09 06:46:23;;;;;;;4.93;0.77;;;15.80;99.90;;;;;;5095746;28;20453;-81
2022/06/09 06:48:49;;;;;;;4.85;1.00;;;15.80;99.90;;;;;;5094536;28;20118;-81
2022/06/09 06:51:15;;;;;;;6.68;1.00;;;15.90;99.90;;;;;;5095032;28;20077;-81
2022/06/09 06:53:41;;;;;;;3.60;1.00;;;16.00;99.90;;;;;;5077168;28;20151;-81
2022/06/09 06:56:08;;;;;;;4.10;1.40;;;16.10;99.90;;;;;;5076841;28;20095;-81
2022/06/09 06:58:35;;;;;;;5.93;0.82;;;16.10;99.90;;;;;;5077211;28;20055;-80
2022/06/09 07:01:02;;;;;;;6.03;0.90;;;16.20;99.90;;;;;;5076824;28;20029;-81
2022/06/09 07:03:29;;;;;;;4.80;1.00;;;16.10;99.90;;;;;;5095235;28;20024;-80
2022/06/09 07:05:55;;;;;;;3.80;0.80;;;16.10;99.90;;;;;;5077189;28;20027;-81
2022/06/09 07:08:24;;;;;;;5.78;1.30;;;16.20;99.90;;;;;;5095204;28;20024;-81
2022/06/09 07:10:51;;;;;;;2.25;0.82;;;16.30;99.90;;;;;;5094019;28;20030;-80
2022/06/09 07:13:16;;;;;;;7.10;1.05;;;16.30;99.90;;;;;;5094777;28;20031;-81
2022/06/09 07:15:42;;;;;;;2.80;0.93;;;16.30;99.90;;;;;;5096509;28;20048;-82
2022/06/09 07:18:09;;;;;;;5.72;0.75;;;16.40;99.90;;;;;;5093339;28;20032;-80
2022/06/09 07:20:35;;;;;;;7.72;0.93;;;16.40;99.90;;;;;;5093614;28;20101;-81
2022/06/09 07:23:00;;;;;;;2.40;0.60;;;16.40;99.90;;;;;;5094443;28;20020;-81
2022/06/09 07:25:27;;;;;;;4.57;0.85;;;16.40;99.90;;;;;;5094727;28;20376;-80
2022/06/09 07:27:54;;;;;;;3.95;0.80;;;16.40;99.90;;;;;;5076744;28;20032;-80
2022/06/09 07:30:23;;;;;;;6.00;0.98;;;16.50;99.90;;;;;;5075740;28;20024;-80
2022/06/09 07:32:49;;;;;;;2.67;0.63;;;16.50;99.90;;;;;;5076786;28;20024;-80
2022/06/09 07:35:20;;;;;;;5.28;0.70;;;16.50;99.90;;;;;;5094093;28;20032;-81
2022/06/09 07:37:46;;;;;;;5.25;0.90;;;16.50;99.90;;;;;;5076143;28;20035;-79
2022/06/09 07:40:13;;;;;;;8.45;0.88;;;16.60;99.90;;;;;;5092726;28;20036;-79
2022/06/09 07:42:39;;;;;;;3.97;0.82;;;16.70;99.90;;;;;;5094401;28;20024;-79
2022/06/09 07:45:06;;;;;;;3.30;0.70;;;16.80;99.90;;;;;;5092783;28;20119;-79
2022/06/09 07:47:32;;;;;;;5.53;0.75;;;16.70;99.90;;;;;;5076428;28;20028;-79
2022/06/09 07:49:58;;;;;;;2.50;0.60;;;16.70;99.90;;;;;;5093038;28;20035;-80
2022/06/09 07:52:24;;;;;;;7.28;0.80;;;16.70;99.90;;;;;;5094388;28;20021;-79
2022/06/09 07:54:50;;;;;;;7.18;0.93;;;16.70;99.90;;;;;;5093246;28;20089;-79
2022/06/09 07:57:15;;;;;;;5.00;1.17;;;16.70;99.90;;;;;;5092796;28;20024;-82
2022/06/09 07:59:41;;;;;;;5.07;0.75;;;16.70;99.90;;;;;;5094304;28;20449;-81
2022/06/09 08:02:07;;;;;;;4.95;0.95;;;16.70;99.90;;;;;;5093445;28;20073;-79
2022/06/09 08:04:33;;;;;;;3.22;0.63;;;16.80;99.90;;;;;;5094341;28;20072;-80
2022/06/09 08:06:59;;;;;;;3.97;0.75;;;16.80;99.90;;;;;;5092731;28;20487;-80
2022/06/09 08:09:25;;;;;;;2.97;0.60;;;16.80;99.90;;;;;;5092404;28;20036;-82
2022/06/09 08:11:51;;;;;;;2.95;0.70;;;17.00;99.90;;;;;;5088540;28;20027;-81
2022/06/09 08:14:17;;;;;;;5.28;0.70;;;17.10;99.90;;;;;;5092932;28;20040;-79
2022/06/09 08:16:43;;;;;;;4.60;0.80;;;17.10;99.90;;;;;;5092302;28;20027;-78
2022/06/09 08:19:09;;;;;;;5.20;1.10;;;17.10;99.90;;;;;;5098526;28;20494;-78
2022/06/09 08:21:35;;;;;;;3.67;0.70;;;17.10;99.90;;;;;;5103598;28;20023;-79
2022/06/09 08:24:01;;;;;;;3.30;0.82;;;17.10;99.90;;;;;;5104751;28;20041;-80
2022/06/09 08:26:27;;;;;;;8.57;0.75;;;17.20;99.90;;;;;;5104858;28;20032;-80
2022/06/09 08:28:53;;;;;;;1.63;0.52;;;17.40;99.90;;;;;;5099943;28;20062;-81
2022/06/09 08:31:19;;;;;;;4.22;0.77;;;17.50;99.90;;;;;;5086310;28;20507;-80
2022/06/09 08:33:45;;;;;;;4.85;0.70;;;17.50;99.90;;;;;;5107843;28;20036;-81
2022/06/09 08:36:11;;;;;;;4.05;0.88;;;17.60;99.90;;;;;;5098675;28;20024;-80
2022/06/09 08:38:38;;;;;;;2.60;0.75;;;17.70;99.90;;;;;;5104204;28;20046;-81
2022/06/09 08:41:29;;;;;;;6.57;1.00;;;17.70;99.90;;;;;;5086519;28;20564;-80
2022/06/09 08:44:21;;;;;;;5.60;0.70;;;17.70;99.90;;;;;;5092980;28;20162;-81
2022/06/09 08:46:49;;;;;;;3.13;0.68;;;17.50;99.90;;;;;;5087721;28;20028;-79
2022/06/09 08:49:33;;;;;;;3.70;0.77;;;17.30;99.90;;;;;;5089882;28;20027;-80
2022/06/09 08:52:12;;;;;;;5.75;1.38;;;17.20;99.90;;;;;;5085556;28;20028;-80
2022/06/09 08:54:39;;;;;;;3.33;0.80;;;17.20;99.90;;;;;;5068720;28;20141;-81
2022/06/09 08:57:15;;;;;;;6.55;1.20;;;17.30;99.90;;;;;;5094179;28;20028;-77
2022/06/09 08:59:43;;;;;;;7.72;0.80;;;17.40;99.90;;;;;;5079295;28;20078;-77
2022/06/09 09:02:34;;;;;;;3.08;1.08;;;17.50;99.90;;;;;;5096818;28;20114;-76
2022/06/09 09:05:32;;;;;;;2.72;0.50;;;17.70;99.90;;;;;;5085304;28;20098;-79
2022/06/09 09:08:02;;;;;;;4.90;1.00;;;17.80;99.90;;;;;;5078290;28;20024;-83
2022/06/09 09:10:49;;;;;;;10.40;3.85;;;17.80;99.90;;;;;;5079723;28;20030;-83
2022/06/09 09:13:38;;;;;;;4.82;1.50;;;17.70;99.90;;;;;;5079184;28;20898;-82
2022/06/09 09:16:12;;;;;;;4.80;0.70;;;17.70;99.90;;;;;;5079244;28;20039;-83
2022/06/09 09:18:58;;;;;;;4.47;0.85;;;17.60;99.90;;;;;;5078749;28;20032;-82
2022/06/09 09:21:33;;;;;;;4.55;0.80;;;17.60;99.90;;;;;;5096006;28;20036;-82
2022/06/09 09:24:03;;;;;;;5.63;0.85;;;17.70;99.90;;;;;;5089503;28;20028;-84
2022/06/09 09:27:07;;;;;;;6.70;0.95;;;17.80;99.90;;;;;;5078800;28;20074;-83
2022/06/09 09:29:57;;;;;;;6.60;1.05;;;17.90;99.90;;;;;;5078250;28;20028;-83
2022/06/09 09:32:27;;;;;;;5.03;0.85;;;17.60;99.90;;;;;;5078323;28;20059;-81
2022/06/09 09:34:54;;;;;;;5.03;0.73;;;17.60;99.90;;;;;;5079146;28;20035;-83
2022/06/09 09:37:36;;;;;;;1.17;0.47;;;17.60;99.90;;;;;;5079316;28;20120;-82
2022/06/09 09:40:16;;;;;;;6.15;0.60;;;17.60;99.90;;;;;;5096400;28;20063;-82
2022/06/09 09:42:44;;;;;;;1.88;0.60;;;17.70;99.90;;;;;;5095009;28;20032;-81
2022/06/09 09:45:10;;;;;;;4.10;0.63;;;17.60;99.90;;;;;;5095245;28;20488;-81
2022/06/09 09:47:51;;;;;;;2.50;0.55;;;17.70;99.90;;;;;;5082031;28;20024;-82
2022/06/09 09:50:39;;;;;;;3.08;0.60;;;17.90;99.40;;;;;;5088133;28;20059;-82
2022/06/09 09:53:38;;;;;;;2.75;0.47;;;17.80;98.80;;;;;;5077689;28;20130;-81
2022/06/09 09:56:17;;;;;;;2.95;0.63;;;17.70;99.00;;;;;;5045010;28;20036;-79
2022/06/09 09:58:49;;;;;;;2.60;0.82;;;17.70;99.50;;;;;;5095901;28;20503;-77
2022/06/09 10:01:17;;;;;;;4.68;1.00;;;17.80;99.60;;;;;;5101385;28;20095;-78
2022/06/09 10:09:54;;;;;;;2.85;0.60;;;17.70;98.70;;;;;;5104331;28;20165;-78
2022/06/09 10:12:23;;;;;;;3.38;0.68;;;17.70;98.20;;;;;;5092835;28;20453;-81
2022/06/09 10:15:02;;;;;;;3.38;0.68;;;17.70;97.80;;;;;;5069698;28;20040;-82
2022/06/09 10:17:51;;;;;;;3.70;0.80;;;17.80;97.80;;;;;;5084179;28;20521;-83
2022/06/09 10:20:21;;;;;;;3.72;0.75;;;17.80;97.30;;;;;;5095444;28;20059;-82
2022/06/09 10:22:55;;;;;;;4.85;0.70;;;17.80;96.90;;;;;;5099738;28;20032;-84
2022/06/09 10:25:33;;;;;;;3.55;0.80;;;17.80;97.20;;;;;;5095742;28;20028;-83
2022/06/09 10:28:48;;;;;;;3.15;0.65;;;17.90;97.00;;;;;;5087785;28;20020;-83
2022/06/09 10:31:28;;;;;;;7.85;2.30;;;17.80;95.90;;;;;;5050335;28;20032;-82
2022/06/09 10:34:21;;;;;;;3.80;0.98;;;17.90;97.10;;;;;;5094365;28;20035;-83
2022/06/09 10:37:12;;;;;;;4.95;0.80;;;17.90;97.00;;;;;;5094469;28;20055;-84
2022/06/09 10:40:09;;;;;;;2.30;0.70;;;18.00;97.40;;;;;;5095978;28;20043;-83
2022/06/09 10:42:37;;;;;;;4.40;0.75;;;18.00;97.10;;;;;;5096477;28;20122;-83
2022/06/09 10:45:24;;;;;;;7.82;0.98;;;18.20;97.30;;;;;;5094100;28;20458;-81
2022/06/09 10:56:53;;;;;;;1.77;0.65;;;18.50;97.00;;;;;;5105611;28;20042;-79
2022/06/09 10:59:37;;;;;;;;;;;18.40;97.40;;;;;;5110214;28;20058;-81
2022/06/09 11:02:10;;;;;;;17.92;10.07;;;18.50;97.20;;;;;;5101115;28;19908;-83
2022/06/09 11:04:36;;;;;;;4.65;1.15;;;18.50;96.90;;;;;;5093011;28;20124;-84
2022/06/09 11:07:19;;;;;;;3.97;0.90;;;18.60;95.90;;;;;;5107023;28;20024;-82
2022/06/09 11:10:10;;;;;;;4.03;0.82;;;18.60;96.30;;;;;;5101529;28;20036;-85
2022/06/09 11:13:12;;;;;;;5.80;1.30;;;18.70;96.50;;;;;;5096021;28;20129;-84
2022/06/09 11:15:53;;;;;;;3.05;0.50;;;18.90;95.80;;;;;;5094334;28;20411;-82
2022/06/09 11:18:46;;;;;;;2.05;1.00;;;18.90;95.30;;;;;;5102142;28;20027;-82
2022/06/09 11:21:44;;;;;;;2.25;0.60;;;18.90;95.00;;;;;;5104219;28;20056;-81
2022/06/09 11:24:32;;;;;;;3.78;0.80;;;19.10;95.20;;;;;;5084257;28;20024;-80
2022/06/09 11:27:25;;;;;;;4.75;0.70;;;19.20;94.50;;;;;;5086736;28;20036;-80
2022/06/09 11:29:57;;;;;;;3.75;0.82;;;19.30;94.70;;;;;;5087456;28;20028;-80
2022/06/09 11:32:45;;;;;;;4.00;0.60;;;19.50;94.40;;;;;;5086408;28;20035;-81
2022/06/09 11:35:32;;;;;;;3.83;0.70;;;19.60;94.60;;;;;;5087532;28;20052;-80
2022/06/09 11:38:13;;;;;;;4.40;0.80;;;19.70;94.20;;;;;;5079934;28;20478;-82
2022/06/09 11:40:54;;;;;;;3.67;0.65;;;19.90;93.70;;;;;;5086728;28;20025;-82
2022/06/09 11:44:08;;;;;;;2.63;0.68;;;20.00;93.00;;;;;;5094106;28;20124;-81
2022/06/09 11:46:41;;;;;;;2.45;0.80;;;20.00;93.30;;;;;;5085986;28;20071;-80
2022/06/09 11:49:18;;;;;;;3.55;0.70;;;19.90;93.90;;;;;;5087198;28;20024;-80
2022/06/09 11:51:45;;;;;;;3.83;0.82;;;19.80;93.80;;;;;;5085748;28;20020;-79
2022/06/09 11:54:39;;;;;;;4.70;0.90;;;19.80;94.90;;;;;;5099114;28;20028;-80
2022/06/09 11:57:26;;;;;;;2.95;1.10;;;19.80;94.00;;;;;;5102103;28;20480;-80
2022/06/09 12:00:24;;;;;;;3.85;0.90;;;19.80;93.00;;;;;;5087520;28;20465;-81
2022/06/09 12:03:41;;;;;;;5.03;1.48;;;19.80;93.30;;;;;;5052143;28;20032;-81
2022/06/09 12:06:37;;;;;;;2.22;0.85;;;19.80;93.20;;;;;;5044007;28;20025;-81
2022/06/09 12:09:19;;;;;;;3.63;0.73;;;19.90;93.80;;;;;;5038522;28;20029;-80
2022/06/09 12:11:53;;;;;;;2.63;0.85;;;19.90;94.10;;;;;;5040795;28;20034;-81
2022/06/09 12:15:09;;;;;;;3.33;0.77;;;19.90;93.00;;;;;;5024229;28;20053;-80
2022/06/09 12:17:47;;;;;;;3.28;0.73;;;20.10;92.50;;;;;;5017925;28;20338;-81
2022/06/09 12:20:43;;;;;;;2.60;0.88;;;20.30;91.70;;;;;;5026117;28;20056;-80
2022/06/09 12:23:26;;;;;;;4.13;0.80;;;20.30;87.60;;;;;;5030078;28;20033;-81
2022/06/09 12:26:12;;;;;;;5.25;1.00;;;20.30;89.20;;;;;;5026483;28;20063;-80
2022/06/09 12:28:49;;;;;;;3.78;1.10;;;20.30;89.90;;;;;;5030248;28;20036;-79
2022/06/09 12:31:20;;;;;;;3.05;0.80;;;20.40;89.70;;;;;;5037757;28;20037;-85
2022/06/09 12:34:00;;;;;;;2.58;0.95;;;20.50;90.20;;;;;;5047637;28;20029;-83
2022/06/09 12:36:51;;;;;;;5.03;1.13;;;20.70;90.20;;;;;;5069854;28;20036;-84
2022/06/09 12:39:42;;;;;;;5.18;0.93;;;20.90;89.70;;;;;;5096504;28;20032;-84
2022/06/09 12:42:21;;;;;;;3.60;0.80;;;21.00;89.00;;;;;;5111514;28;20034;-83
2022/06/09 12:45:07;;;;;;;5.38;0.80;;;21.10;89.70;;;;;;5095447;28;20034;-83
2022/06/09 12:47:33;;;;;;;7.68;0.90;;;21.00;88.80;;;;;;5102739;28;20465;-81
2022/06/09 12:50:04;;;;;;;5.60;1.10;;;21.10;88.10;;;;;;5104281;28;20024;-86
2022/06/09 12:52:42;;;;;;;3.87;0.80;;;21.30;89.10;;;;;;5101826;28;20041;-85
2022/06/09 12:55:29;;;;;;;4.68;0.60;;;21.50;85.80;;;;;;5097810;28;20269;-83
2022/06/09 12:58:34;;;;;;;3.17;1.00;;;21.50;86.30;;;;;;5096038;28;20032;-83
2022/06/09 13:01:03;;;;;;;2.22;0.70;;;21.20;87.50;;;;;;5051294;28;20032;-82
2022/06/09 13:03:34;;;;;;;2.53;0.80;;;21.00;90.00;;;;;;5101448;28;20032;-83
2022/06/09 13:06:30;;;;;;;6.40;0.73;;;20.80;90.70;;;;;;5096863;28;20133;-83
2022/06/09 13:09:00;;;;;;;2.10;0.43;;;21.10;90.30;;;;;;5088728;28;20106;-84
2022/06/09 13:14:21;;;;;;;2.80;0.65;;;21.70;89.50;;;;;;5102212;28;20096;-79
2022/06/09 13:16:49;;;;;;;2.88;0.57;;;21.60;89.00;;;;;;5095916;28;20481;-83
2022/06/09 13:19:18;;;;;;;4.88;0.93;;;21.80;89.70;;;;;;5079676;28;20477;-85
2022/06/09 13:21:45;;;;;;;2.15;0.65;;;22.10;87.90;;;;;;5096216;28;20025;-84
2022/06/09 13:24:16;;;;;;;3.95;0.80;;;22.10;86.40;;;;;;5078278;28;20124;-84
2022/06/09 13:26:45;;;;;;;5.65;0.82;;;21.90;87.80;;;;;;5078910;28;20032;-83
2022/06/09 13:29:49;;;;;;;2.67;0.70;;;21.50;86.60;;;;;;5078664;28;20046;-82
2022/06/09 13:32:37;;;;;;;6.60;0.90;;;21.30;86.60;;;;;;5049334;28;20052;-82
2022/06/09 13:35:23;;;;;;;1.33;0.60;;;21.90;87.10;;;;;;5092078;28;20024;-82
2022/06/09 13:38:04;;;;;;;4.72;0.75;;;22.30;85.80;;;;;;5063825;28;20041;-81
2022/06/09 13:40:42;;;;;;;3.22;1.08;;;22.80;83.00;;;;;;5064049;28;20040;-82